Terminal Aerodrome Forecast
Issued by NWS

Home | Current Version | Previous Version | Text Only | Print | Product List | Glossary On
Versions: 1 2 3 4 5 6 7 8 9 10 11 12 13 14 15 16 17
000
FTUS46 KMTR 251700
TAFSTS
TAF
KSTS 251732Z 2518/2618 VRB03KT 3SM BR SKC
      TEMPO 2518/2519 1SM BR BKN003
     FM252100 15005KT 5SM HZ SKC
     FM260400 00000KT 4SM BR SCT001
     FM260600 00000KT 1/2SM FG VV001=

USA.gov is the U.S. government's official web portal to all federal, state and local government web resources and services.